Time;durP1;ratioP1;P1;durP2;ratioP2;P2;SDS_P1;SDS_P2;PMS_P1;PMS_P2;Temp;Humidity;BMP_temperature;BMP_pressure;BME280_temperature;BME280_humidity;BME280_pressure;Samples;Min_cycle;Max_cycle;Signal;HPM_P1;HPM_P2
2022/04/09 00:00:18;;;;;;;4.83;1.73;;;;;;;;;;5050929;28;20212;-57
2022/04/09 00:02:44;;;;;;;5.37;2.20;;;;;;;;;;5043666;28;20655;-56
2022/04/09 00:05:15;;;;;;;5.07;2.40;;;;;;;;;;5057858;28;20643;-57
2022/04/09 00:07:41;;;;;;;1.97;1.73;;;;;;;;;;5062676;28;20219;-56
2022/04/09 00:10:09;;;;;;;3.43;2.23;;;;;;;;;;5060056;28;20184;-56
2022/04/09 00:12:38;;;;;;;5.13;2.00;;;;;;;;;;5059707;28;20224;-56
2022/04/09 00:15:06;;;;;;;3.57;2.00;;;;;;;;;;5074344;28;20191;-56
2022/04/09 00:17:37;;;;;;;5.90;1.97;;;;;;;;;;5050760;28;20271;-56
2022/04/09 00:20:03;;;;;;;3.70;1.90;;;;;;;;;;5050688;28;20555;-56
2022/04/09 00:22:30;;;;;;;2.87;1.80;;;;;;;;;;5064736;28;20184;-56
2022/04/09 00:24:56;;;;;;;6.57;2.53;;;;;;;;;;5075644;28;20645;-56
2022/04/09 00:27:23;;;;;;;3.77;1.83;;;;;;;;;;5054933;28;20553;-55
2022/04/09 00:29:49;;;;;;;3.53;2.00;;;;;;;;;;5046908;28;20211;-56
2022/04/09 00:32:15;;;;;;;3.17;2.07;;;;;;;;;;5049330;28;20619;-56
2022/04/09 00:34:45;;;;;;;3.97;1.80;;;;;;;;;;5053030;28;20238;-56
2022/04/09 00:37:11;;;;;;;4.67;2.10;;;;;;;;;;5068770;28;20720;-56
2022/04/09 00:39:37;;;;;;;3.30;2.10;;;;;;;;;;5054370;28;20222;-56
2022/04/09 00:42:04;;;;;;;3.67;2.00;;;;;;;;;;5077670;28;20195;-57
2022/04/09 00:44:31;;;;;;;3.87;2.10;;;;;;;;;;5062058;28;20180;-56
2022/04/09 00:46:57;;;;;;;5.13;2.03;;;;;;;;;;5054562;28;20188;-56
2022/04/09 00:49:24;;;;;;;3.13;1.90;;;;;;;;;;5071042;28;20191;-57
2022/04/09 00:51:51;;;;;;;3.67;1.90;;;;;;;;;;5077120;28;20266;-56
2022/04/09 00:54:20;;;;;;;3.83;2.03;;;;;;;;;;5072791;28;20188;-55
2022/04/09 00:56:47;;;;;;;4.73;1.67;;;;;;;;;;5072167;28;20261;-56
2022/04/09 00:59:14;;;;;;;4.80;2.53;;;;;;;;;;5077759;28;20315;-56
2022/04/09 01:01:41;;;;;;;2.73;1.77;;;;;;;;;;5075149;28;20196;-56
2022/04/09 01:04:08;;;;;;;6.13;1.97;;;;;;;;;;5049149;28;20183;-57
2022/04/09 01:06:35;;;;;;;3.20;2.00;;;;;;;;;;5061472;28;20633;-56
2022/04/09 01:09:02;;;;;;;4.43;2.37;;;;;;;;;;5067716;28;20177;-56
2022/04/09 01:11:28;;;;;;;4.77;2.47;;;;;;;;;;5074178;28;20192;-57
2022/04/09 01:13:54;;;;;;;4.47;2.00;;;;;;;;;;5079340;28;20175;-55
2022/04/09 01:16:22;;;;;;;5.27;2.17;;;;;;;;;;5072464;28;20218;-57
2022/04/09 01:18:48;;;;;;;5.43;2.57;;;;;;;;;;5055338;28;20278;-55
2022/04/09 01:21:14;;;;;;;4.20;2.23;;;;;;;;;;5073230;28;20215;-55
2022/04/09 01:23:41;;;;;;;4.40;2.03;;;;;;;;;;5083418;28;20209;-58
2022/04/09 01:26:07;;;;;;;5.90;2.50;;;;;;;;;;5053309;28;20432;-56
2022/04/09 01:28:34;;;;;;;3.57;2.00;;;;;;;;;;5078472;28;20180;-55
2022/04/09 01:31:01;;;;;;;4.53;2.60;;;;;;;;;;5045075;28;20262;-55
2022/04/09 01:33:27;;;;;;;4.60;2.23;;;;;;;;;;5048146;28;20180;-56
2022/04/09 01:35:53;;;;;;;6.10;2.87;;;;;;;;;;5068593;28;20237;-56
2022/04/09 01:38:20;;;;;;;4.17;2.20;;;;;;;;;;5054305;28;20191;-56
2022/04/09 01:40:46;;;;;;;5.27;2.53;;;;;;;;;;5055816;28;20196;-55
2022/04/09 01:43:12;;;;;;;4.90;2.47;;;;;;;;;;5056785;28;20655;-56
2022/04/09 01:45:39;;;;;;;3.63;2.17;;;;;;;;;;5039710;28;20594;-56
2022/04/09 01:48:05;;;;;;;5.47;2.47;;;;;;;;;;5049928;28;20204;-56
2022/04/09 01:50:32;;;;;;;2.80;2.00;;;;;;;;;;5070712;28;20187;-55
2022/04/09 01:52:58;;;;;;;6.60;2.47;;;;;;;;;;5085749;28;20211;-56
2022/04/09 01:55:24;;;;;;;4.37;2.13;;;;;;;;;;5073775;28;20530;-56
2022/04/09 01:57:50;;;;;;;4.27;2.47;;;;;;;;;;5070630;28;20210;-56
2022/04/09 02:00:17;;;;;;;6.63;2.77;;;;;;;;;;5070196;28;20199;-56
2022/04/09 02:02:43;;;;;;;5.57;3.13;;;;;;;;;;5067209;28;20191;-56
2022/04/09 02:05:13;;;;;;;5.33;2.47;;;;;;;;;;5067392;28;20192;-55
2022/04/09 02:07:41;;;;;;;10.70;2.67;;;;;;;;;;5066614;28;20203;-55
2022/04/09 02:10:07;;;;;;;4.13;2.50;;;;;;;;;;5066924;28;20550;-55
2022/04/09 02:12:34;;;;;;;6.83;2.23;;;;;;;;;;5056353;28;20741;-56
2022/04/09 02:15:11;;;;;;;5.73;2.70;;;;;;;;;;5066674;28;20477;-55
2022/04/09 02:17:41;;;;;;;7.63;2.70;;;;;;;;;;5077863;28;20176;-56
2022/04/09 02:20:08;;;;;;;5.90;2.20;;;;;;;;;;5053601;28;20179;-55
2022/04/09 02:22:35;;;;;;;6.13;2.30;;;;;;;;;;5053074;28;20362;-57
2022/04/09 02:25:02;;;;;;;4.53;2.80;;;;;;;;;;5045779;28;20188;-56
2022/04/09 02:27:28;;;;;;;5.30;2.60;;;;;;;;;;5048079;28;20536;-56
2022/04/09 02:29:55;;;;;;;4.03;2.40;;;;;;;;;;5061373;28;20619;-57
2022/04/09 02:32:22;;;;;;;5.93;2.40;;;;;;;;;;5069306;28;20670;-56
2022/04/09 02:34:52;;;;;;;5.80;2.83;;;;;;;;;;5045730;28;21068;-56
2022/04/09 02:37:18;;;;;;;6.07;2.60;;;;;;;;;;5051525;28;20183;-56
2022/04/09 02:39:44;;;;;;;3.57;2.60;;;;;;;;;;5072115;28;20189;-56
2022/04/09 02:42:12;;;;;;;5.87;2.40;;;;;;;;;;5071615;28;20193;-56
2022/04/09 02:44:39;;;;;;;5.07;2.73;;;;;;;;;;5050039;28;20189;-56
2022/04/09 02:47:05;;;;;;;6.17;2.33;;;;;;;;;;5052060;28;20168;-56
2022/04/09 02:49:31;;;;;;;6.20;2.43;;;;;;;;;;5068650;28;20192;-57
2022/04/09 02:51:58;;;;;;;6.27;3.40;;;;;;;;;;5070500;28;20180;-56
2022/04/09 02:54:24;;;;;;;9.10;2.63;;;;;;;;;;5066460;28;21004;-56
2022/04/09 02:56:50;;;;;;;7.47;2.77;;;;;;;;;;5070022;28;20209;-56
2022/04/09 02:59:16;;;;;;;4.03;2.27;;;;;;;;;;5067757;28;20220;-56
2022/04/09 03:01:46;;;;;;;5.50;2.80;;;;;;;;;;5043008;28;20218;-56
2022/04/09 03:04:13;;;;;;;7.10;2.90;;;;;;;;;;5071570;28;20195;-56
2022/04/09 03:06:39;;;;;;;6.30;2.60;;;;;;;;;;5053992;28;20180;-56
2022/04/09 03:09:06;;;;;;;10.63;3.10;;;;;;;;;;5069950;28;20188;-56
2022/04/09 03:11:32;;;;;;;4.50;2.90;;;;;;;;;;5062215;28;20223;-56
2022/04/09 03:13:58;;;;;;;7.67;3.07;;;;;;;;;;5058088;28;20220;-56
2022/04/09 03:16:25;;;;;;;5.53;2.90;;;;;;;;;;5071492;28;20172;-56
2022/04/09 03:18:51;;;;;;;6.60;3.93;;;;;;;;;;5050479;28;20538;-56
2022/04/09 03:21:17;;;;;;;7.13;3.10;;;;;;;;;;5077847;28;20638;-56
2022/04/09 03:23:43;;;;;;;4.60;2.57;;;;;;;;;;5075949;28;20519;-56
2022/04/09 03:26:11;;;;;;;6.00;3.00;;;;;;;;;;5053458;28;20196;-56
2022/04/09 03:28:38;;;;;;;8.23;3.07;;;;;;;;;;5071116;28;20177;-56
2022/04/09 03:31:04;;;;;;;7.63;3.27;;;;;;;;;;5070064;28;20640;-56
2022/04/09 03:33:32;;;;;;;5.23;2.50;;;;;;;;;;5071758;28;20626;-57
2022/04/09 03:35:59;;;;;;;4.53;2.20;;;;;;;;;;5065604;28;20195;-56
2022/04/09 03:38:25;;;;;;;6.97;3.23;;;;;;;;;;5065078;28;20184;-56
2022/04/09 03:40:52;;;;;;;6.07;2.63;;;;;;;;;;5056740;28;20204;-56
2022/04/09 03:43:18;;;;;;;9.57;3.27;;;;;;;;;;5086574;28;20184;-56
2022/04/09 03:45:44;;;;;;;6.63;2.80;;;;;;;;;;5065461;28;20632;-57
2022/04/09 03:48:10;;;;;;;6.07;2.67;;;;;;;;;;5053352;28;20185;-56
2022/04/09 03:50:37;;;;;;;10.27;2.93;;;;;;;;;;5073992;28;20191;-56
2022/04/09 03:53:03;;;;;;;8.03;2.60;;;;;;;;;;5045052;28;20181;-56
2022/04/09 03:55:30;;;;;;;7.73;2.83;;;;;;;;;;5076093;28;20675;-56
2022/04/09 03:57:59;;;;;;;7.13;2.87;;;;;;;;;;5069747;28;20663;-56
2022/04/09 04:00:25;;;;;;;5.77;2.40;;;;;;;;;;5052478;28;20189;-56
2022/04/09 04:02:51;;;;;;;4.37;2.07;;;;;;;;;;5066830;28;20184;-57
2022/04/09 04:05:18;;;;;;;6.20;3.57;;;;;;;;;;5070289;28;20485;-56
2022/04/09 04:07:46;;;;;;;7.37;2.87;;;;;;;;;;5052813;28;20176;-57
2022/04/09 04:10:13;;;;;;;6.90;2.70;;;;;;;;;;5072962;28;20705;-55
2022/04/09 04:12:40;;;;;;;9.73;3.17;;;;;;;;;;5066446;28;20487;-54
2022/04/09 04:15:08;;;;;;;8.80;2.80;;;;;;;;;;5053009;28;20232;-56
2022/04/09 04:17:41;;;;;;;6.00;2.57;;;;;;;;;;5053955;28;20600;-56
2022/04/09 04:20:08;;;;;;;4.67;2.10;;;;;;;;;;5052725;28;20198;-56
2022/04/09 04:22:36;;;;;;;6.20;2.30;;;;;;;;;;5078582;28;20280;-56
2022/04/09 04:25:04;;;;;;;7.50;2.60;;;;;;;;;;5049572;28;20237;-56
2022/04/09 04:27:30;;;;;;;5.77;2.30;;;;;;;;;;5078768;28;20310;-56
2022/04/09 04:30:01;;;;;;;8.77;2.90;;;;;;;;;;5063111;28;20212;-56
2022/04/09 04:32:28;;;;;;;8.57;3.03;;;;;;;;;;5073199;28;20176;-56
2022/04/09 04:34:54;;;;;;;7.30;2.53;;;;;;;;;;5063042;28;20182;-56
2022/04/09 04:37:20;;;;;;;6.70;3.57;;;;;;;;;;5060474;28;20649;-56
2022/04/09 04:39:47;;;;;;;5.37;2.90;;;;;;;;;;5078561;28;20619;-56
2022/04/09 04:42:14;;;;;;;5.37;2.53;;;;;;;;;;5048404;28;20214;-56
2022/04/09 04:44:40;;;;;;;8.40;2.53;;;;;;;;;;5053378;28;20206;-56
2022/04/09 04:47:06;;;;;;;8.67;2.70;;;;;;;;;;5046564;28;20266;-56
2022/04/09 04:49:32;;;;;;;5.73;3.03;;;;;;;;;;5068654;28;20208;-56
2022/04/09 04:51:58;;;;;;;6.23;2.93;;;;;;;;;;5068789;28;20207;-56
2022/04/09 04:54:25;;;;;;;7.53;2.80;;;;;;;;;;5067292;28;20191;-56
2022/04/09 04:56:51;;;;;;;8.03;3.10;;;;;;;;;;5053487;28;20204;-56
2022/04/09 04:59:18;;;;;;;5.67;2.23;;;;;;;;;;5057471;28;20194;-57
2022/04/09 05:01:44;;;;;;;5.83;3.53;;;;;;;;;;5075257;28;20307;-56
2022/04/09 05:04:10;;;;;;;8.87;2.60;;;;;;;;;;5066975;28;20716;-55
2022/04/09 05:06:36;;;;;;;7.80;3.20;;;;;;;;;;5086759;28;20186;-56
2022/04/09 05:09:03;;;;;;;8.43;2.67;;;;;;;;;;5066648;28;20191;-56
2022/04/09 05:11:29;;;;;;;5.20;2.40;;;;;;;;;;5051087;28;20188;-56
2022/04/09 05:13:55;;;;;;;5.20;2.53;;;;;;;;;;5050283;28;20881;-56
2022/04/09 05:16:21;;;;;;;7.17;3.00;;;;;;;;;;5068631;28;20183;-56
2022/04/09 05:18:48;;;;;;;9.27;3.07;;;;;;;;;;5042377;28;20199;-56
2022/04/09 05:21:15;;;;;;;5.47;2.57;;;;;;;;;;5070579;28;20270;-56
2022/04/09 05:23:41;;;;;;;6.33;2.73;;;;;;;;;;5053787;28;20268;-56
2022/04/09 05:26:07;;;;;;;5.03;2.90;;;;;;;;;;5065970;28;20904;-56
2022/04/09 05:28:34;;;;;;;6.23;2.40;;;;;;;;;;5053144;28;20185;-55
2022/04/09 05:30:59;;;;;;;9.13;2.83;;;;;;;;;;5073269;28;20179;-55
2022/04/09 05:33:26;;;;;;;4.70;2.67;;;;;;;;;;5077946;28;20603;-56
2022/04/09 05:35:54;;;;;;;6.93;2.30;;;;;;;;;;5070874;28;20307;-56
2022/04/09 05:38:20;;;;;;;4.93;2.33;;;;;;;;;;5048375;28;20188;-57
2022/04/09 05:40:46;;;;;;;5.53;2.60;;;;;;;;;;5064067;28;20204;-56
2022/04/09 05:43:13;;;;;;;5.17;2.50;;;;;;;;;;5067459;28;20180;-56
2022/04/09 05:45:39;;;;;;;8.23;2.80;;;;;;;;;;5064284;28;20203;-56
2022/04/09 05:48:06;;;;;;;6.63;2.40;;;;;;;;;;5065909;28;20278;-56
2022/04/09 05:50:32;;;;;;;4.37;2.70;;;;;;;;;;5039291;28;20215;-55
2022/04/09 05:52:58;;;;;;;13.53;2.80;;;;;;;;;;5047461;28;20175;-55
2022/04/09 05:55:24;;;;;;;8.17;3.20;;;;;;;;;;5068327;28;20177;-55
2022/04/09 05:57:51;;;;;;;10.93;3.40;;;;;;;;;;5040208;28;20196;-55
2022/04/09 06:00:17;;;;;;;9.73;3.40;;;;;;;;;;5042014;28;20185;-55
2022/04/09 06:02:44;;;;;;;9.60;2.80;;;;;;;;;;5058865;28;20188;-55
2022/04/09 06:05:10;;;;;;;10.13;3.37;;;;;;;;;;5065317;28;20188;-56
2022/04/09 06:07:36;;;;;;;10.03;3.10;;;;;;;;;;5067750;28;20174;-56
2022/04/09 06:10:04;;;;;;;8.83;2.87;;;;;;;;;;5071097;28;20176;-56
2022/04/09 06:12:30;;;;;;;5.53;2.93;;;;;;;;;;5067575;28;20230;-57
2022/04/09 06:14:56;;;;;;;12.13;3.00;;;;;;;;;;5067996;28;20310;-56
2022/04/09 06:17:25;;;;;;;8.20;3.00;;;;;;;;;;5078365;28;20662;-55
2022/04/09 06:19:51;;;;;;;6.00;2.67;;;;;;;;;;5061740;28;20187;-56
2022/04/09 06:22:18;;;;;;;6.23;3.00;;;;;;;;;;5071058;28;20200;-56
2022/04/09 06:24:44;;;;;;;8.47;3.00;;;;;;;;;;5065055;28;20173;-56
2022/04/09 06:27:13;;;;;;;7.57;2.63;;;;;;;;;;5050579;28;20196;-55
2022/04/09 06:29:39;;;;;;;10.47;2.97;;;;;;;;;;5072304;28;20233;-55
2022/04/09 06:32:06;;;;;;;5.37;3.80;;;;;;;;;;5084619;28;20184;-55
2022/04/09 06:34:32;;;;;;;8.10;2.90;;;;;;;;;;5072324;28;20619;-56
2022/04/09 06:36:59;;;;;;;7.57;3.20;;;;;;;;;;5069626;28;20253;-55
2022/04/09 06:39:25;;;;;;;7.07;2.60;;;;;;;;;;5070308;28;20185;-54
2022/04/09 06:41:51;;;;;;;8.50;3.00;;;;;;;;;;5072812;28;20275;-56
2022/04/09 06:44:18;;;;;;;9.87;2.87;;;;;;;;;;5071877;28;20297;-55
2022/04/09 06:46:46;;;;;;;8.07;2.90;;;;;;;;;;5063103;28;20267;-55
2022/04/09 06:49:13;;;;;;;4.47;2.20;;;;;;;;;;5059543;28;20177;-55
2022/04/09 06:51:39;;;;;;;8.77;3.23;;;;;;;;;;5071797;28;20191;-55
2022/04/09 06:54:06;;;;;;;5.63;2.57;;;;;;;;;;5070391;28;20645;-55
2022/04/09 06:56:32;;;;;;;5.87;2.20;;;;;;;;;;5062450;28;20239;-56
2022/04/09 06:58:58;;;;;;;11.23;3.13;;;;;;;;;;5050690;28;20169;-55
2022/04/09 07:01:26;;;;;;;5.30;2.30;;;;;;;;;;5061943;28;20189;-55
2022/04/09 07:03:55;;;;;;;6.30;2.93;;;;;;;;;;5069549;28;20183;-56
2022/04/09 07:06:22;;;;;;;6.70;2.90;;;;;;;;;;5062300;28;20181;-55
2022/04/09 07:08:48;;;;;;;11.73;3.03;;;;;;;;;;5076981;28;20660;-55
2022/04/09 07:11:14;;;;;;;5.10;2.93;;;;;;;;;;5061556;28;20185;-56
2022/04/09 07:13:43;;;;;;;7.47;3.20;;;;;;;;;;5055121;28;20216;-56
2022/04/09 07:16:10;;;;;;;6.13;2.80;;;;;;;;;;5036410;28;20193;-56
2022/04/09 07:18:36;;;;;;;7.23;2.77;;;;;;;;;;5040721;28;20193;-55
2022/04/09 07:21:03;;;;;;;6.77;3.33;;;;;;;;;;5039194;28;20308;-55
2022/04/09 07:23:29;;;;;;;11.57;3.40;;;;;;;;;;5070454;28;21040;-55
2022/04/09 07:25:56;;;;;;;10.60;3.03;;;;;;;;;;5064598;28;20177;-56
2022/04/09 07:28:22;;;;;;;7.93;2.77;;;;;;;;;;5060563;28;20185;-55
2022/04/09 07:30:48;;;;;;;9.60;2.77;;;;;;;;;;5060002;28;20235;-55
2022/04/09 07:33:14;;;;;;;5.50;2.33;;;;;;;;;;5060606;28;20189;-56
2022/04/09 07:35:40;;;;;;;10.67;3.20;;;;;;;;;;5040724;28;20223;-56
2022/04/09 07:38:08;;;;;;;5.10;2.63;;;;;;;;;;5042419;28;20189;-55
2022/04/09 07:40:36;;;;;;;6.03;2.70;;;;;;;;;;5057069;28;20254;-55
2022/04/09 07:43:02;;;;;;;6.23;2.93;;;;;;;;;;5039108;28;20534;-55
2022/04/09 07:45:29;;;;;;;6.70;2.80;;;;;;;;;;5057167;28;20187;-55
2022/04/09 07:47:56;;;;;;;6.07;2.37;;;;;;;;;;5039475;28;20184;-56
2022/04/09 07:50:22;;;;;;;3.77;2.57;;;;;;;;;;5054659;28;20283;-55
2022/04/09 07:52:48;;;;;;;6.00;2.90;;;;;;;;;;5052588;28;20181;-56
2022/04/09 07:55:16;;;;;;;4.97;2.27;;;;;;;;;;5041333;28;20681;-55
2022/04/09 07:57:43;;;;;;;8.33;2.83;;;;;;;;;;5037879;28;20204;-55
2022/04/09 08:00:10;;;;;;;6.60;2.60;;;;;;;;;;5034242;28;20204;-55
2022/04/09 08:02:37;;;;;;;5.30;2.90;;;;;;;;;;5056182;28;20189;-55
2022/04/09 08:05:03;;;;;;;6.33;3.33;;;;;;;;;;5054208;28;20238;-56
2022/04/09 08:07:29;;;;;;;8.83;3.77;;;;;;;;;;5067224;28;20188;-55
2022/04/09 08:09:55;;;;;;;5.57;2.70;;;;;;;;;;5046854;28;20577;-56
2022/04/09 08:12:21;;;;;;;5.90;3.07;;;;;;;;;;5070258;28;20319;-55
2022/04/09 08:14:48;;;;;;;8.80;2.87;;;;;;;;;;5064036;28;20188;-55
2022/04/09 08:17:18;;;;;;;7.20;3.17;;;;;;;;;;5061268;28;20185;-54
2022/04/09 08:19:44;;;;;;;8.37;2.83;;;;;;;;;;5057220;28;20192;-55
2022/04/09 08:22:10;;;;;;;6.03;2.50;;;;;;;;;;5037691;28;20196;-54
2022/04/09 08:24:39;;;;;;;4.80;2.60;;;;;;;;;;5067540;28;20177;-55
2022/04/09 08:27:05;;;;;;;11.23;2.63;;;;;;;;;;5060709;28;20585;-54
2022/04/09 08:29:32;;;;;;;5.43;2.57;;;;;;;;;;5052666;28;20187;-55
2022/04/09 08:31:58;;;;;;;4.37;2.10;;;;;;;;;;5049311;28;20618;-55
2022/04/09 08:34:28;;;;;;;6.77;2.30;;;;;;;;;;5044154;28;20184;-55
2022/04/09 08:36:54;;;;;;;4.77;2.43;;;;;;;;;;5060769;28;20192;-56
2022/04/09 08:39:20;;;;;;;3.93;2.20;;;;;;;;;;5070084;28;20216;-55
2022/04/09 08:41:46;;;;;;;7.70;2.53;;;;;;;;;;5054243;28;20197;-54
2022/04/09 08:44:13;;;;;;;3.23;2.10;;;;;;;;;;5032882;28;20293;-55
2022/04/09 08:46:40;;;;;;;6.43;1.80;;;;;;;;;;5067118;28;20239;-55
2022/04/09 08:49:06;;;;;;;4.00;1.73;;;;;;;;;;5050996;28;20173;-54
2022/04/09 08:51:34;;;;;;;2.67;1.57;;;;;;;;;;5068789;28;20231;-54
2022/04/09 08:54:02;;;;;;;1.63;1.07;;;;;;;;;;5069269;28;20628;-55
2022/04/09 08:56:29;;;;;;;2.37;1.20;;;;;;;;;;5064187;28;20185;-55
2022/04/09 08:58:58;;;;;;;1.57;1.00;;;;;;;;;;5056665;28;20652;-55
2022/04/09 09:01:24;;;;;;;23.77;2.30;;;;;;;;;;5047810;28;20560;-54
2022/04/09 09:03:51;;;;;;;7.50;1.97;;;;;;;;;;5056382;28;20707;-54
2022/04/09 09:06:46;;;;;;;12.03;1.80;;;;;;;;;;5051478;28;20181;-54
2022/04/09 09:09:26;;;;;;;4.10;1.23;;;;;;;;;;5052838;28;20196;-54
2022/04/09 09:11:53;;;;;;;1.27;1.10;;;;;;;;;;5064146;28;20227;-54
2022/04/09 09:14:27;;;;;;;1.67;1.30;;;;;;;;;;5047113;28;20196;-55
2022/04/09 09:16:54;;;;;;;1.87;1.33;;;;;;;;;;5059290;28;20178;-58
2022/04/09 09:19:21;;;;;;;3.13;1.50;;;;;;;;;;5059184;28;20671;-56
2022/04/09 09:21:54;;;;;;;3.40;1.83;;;;;;;;;;5056966;28;20239;-56
2022/04/09 09:24:21;;;;;;;3.37;2.20;;;;;;;;;;5049384;28;20193;-58
2022/04/09 09:26:56;;;;;;;2.67;1.93;;;;;;;;;;5052173;28;20762;-57
2022/04/09 09:29:26;;;;;;;3.67;1.80;;;;;;;;;;5075637;28;20233;-56
2022/04/09 09:31:52;;;;;;;8.73;1.60;;;;;;;;;;5060767;28;20186;-56
2022/04/09 09:34:19;;;;;;;5.07;1.87;;;;;;;;;;5070157;28;20643;-57
2022/04/09 09:36:45;;;;;;;3.30;1.53;;;;;;;;;;5069575;28;20199;-57
2022/04/09 09:39:12;;;;;;;3.77;1.67;;;;;;;;;;5053783;28;20209;-57
2022/04/09 09:41:52;;;;;;;7.10;2.00;;;;;;;;;;5055659;28;20240;-56
2022/04/09 09:44:19;;;;;;;6.97;1.63;;;;;;;;;;5048462;28;20498;-56
2022/04/09 09:46:47;;;;;;;3.43;1.77;;;;;;;;;;5068456;28;20582;-56
2022/04/09 09:49:15;;;;;;;4.07;1.83;;;;;;;;;;5060186;28;20236;-56
2022/04/09 09:51:45;;;;;;;4.13;2.07;;;;;;;;;;5067466;28;20263;-56
2022/04/09 09:54:12;;;;;;;4.80;2.37;;;;;;;;;;5068126;28;20184;-57
2022/04/09 09:56:41;;;;;;;4.30;2.20;;;;;;;;;;5065022;28;20639;-54
2022/04/09 09:59:07;;;;;;;3.83;2.20;;;;;;;;;;5059317;28;20267;-56
2022/04/09 10:01:37;;;;;;;2.63;1.60;;;;;;;;;;5051443;28;20204;-56
2022/04/09 10:04:04;;;;;;;4.63;1.90;;;;;;;;;;5055117;28;20184;-56
2022/04/09 10:06:31;;;;;;;2.30;2.10;;;;;;;;;;5067469;28;20181;-55
2022/04/09 10:09:02;;;;;;;3.27;2.30;;;;;;;;;;5059813;28;20644;-55
2022/04/09 10:11:29;;;;;;;4.77;2.60;;;;;;;;;;5064143;28;20184;-53
2022/04/09 10:13:56;;;;;;;5.05;2.80;;;;;;;;;;5048200;28;20422;-53
2022/04/09 10:16:23;;;;;;;3.80;1.83;;;;;;;;;;5046000;28;20177;-53
2022/04/09 10:18:49;;;;;;;6.33;2.97;;;;;;;;;;5060748;28;20177;-53
2022/04/09 10:21:17;;;;;;;2.30;1.87;;;;;;;;;;5070368;28;20204;-53
2022/04/09 10:23:44;;;;;;;3.80;2.10;;;;;;;;;;5051755;28;20698;-53
2022/04/09 10:26:11;;;;;;;2.37;1.73;;;;;;;;;;5067121;28;20207;-54
2022/04/09 10:28:38;;;;;;;6.17;2.40;;;;;;;;;;5063174;28;20201;-57
2022/04/09 10:31:40;;;;;;;4.93;1.73;;;;;;;;;;5067386;28;20176;-55
2022/04/09 10:34:07;;;;;;;3.43;1.57;;;;;;;;;;4963242;28;20184;-58
2022/04/09 10:36:46;;;;;;;4.80;1.60;;;;;;;;;;5029241;28;20236;-57
2022/04/09 10:39:22;;;;;;;6.07;1.80;;;;;;;;;;5067922;28;20532;-58
2022/04/09 10:41:49;;;;;;;3.23;1.17;;;;;;;;;;5060785;28;20203;-54
2022/04/09 10:44:34;;;;;;;2.60;1.23;;;;;;;;;;5065766;28;20245;-55
2022/04/09 10:47:01;;;;;;;3.07;1.30;;;;;;;;;;5073744;28;20741;-54
2022/04/09 10:49:29;;;;;;;1.33;1.10;;;;;;;;;;5047406;28;20169;-54
2022/04/09 10:52:19;;;;;;;4.80;1.30;;;;;;;;;;5068001;28;20804;-55
2022/04/09 10:55:04;;;;;;;2.40;1.60;;;;;;;;;;5035797;28;20184;-55
2022/04/09 10:57:41;;;;;;;20.13;2.67;;;;;;;;;;5067450;28;20200;-55
2022/04/09 11:00:09;;;;;;;3.73;1.77;;;;;;;;;;5068289;28;20176;-56
2022/04/09 11:02:35;;;;;;;9.90;1.50;;;;;;;;;;5068754;28;20232;-55
2022/04/09 11:05:21;;;;;;;7.43;1.90;;;;;;;;;;5069744;28;20180;-60
2022/04/09 11:08:17;;;;;;;4.23;1.57;;;;;;;;;;5075578;28;20223;-60
2022/04/09 11:10:43;;;;;;;2.77;1.60;;;;;;;;;;5059846;28;20191;-60
2022/04/09 11:13:12;;;;;;;2.53;1.60;;;;;;;;;;5076865;28;20303;-58
2022/04/09 11:15:45;;;;;;;4.23;2.13;;;;;;;;;;5062501;28;20412;-57
2022/04/09 11:18:11;;;;;;;1.87;1.57;;;;;;;;;;5075661;28;20195;-55
2022/04/09 11:20:38;;;;;;;3.13;1.30;;;;;;;;;;5072903;28;20184;-58
2022/04/09 11:23:09;;;;;;;2.47;1.47;;;;;;;;;;5055251;28;20242;-60
2022/04/09 11:25:35;;;;;;;3.40;1.33;;;;;;;;;;5058579;28;20199;-56
2022/04/09 11:28:13;;;;;;;3.83;1.90;;;;;;;;;;5079016;28;20240;-59
2022/04/09 11:31:02;;;;;;;1.43;1.33;;;;;;;;;;5071521;28;20177;-60
2022/04/09 11:33:29;;;;;;;3.43;1.30;;;;;;;;;;5058818;28;20428;-57
2022/04/09 11:35:55;;;;;;;6.43;1.67;;;;;;;;;;5063133;28;20614;-61
2022/04/09 11:38:26;;;;;;;2.90;1.50;;;;;;;;;;5070114;28;20545;-57
2022/04/09 11:40:53;;;;;;;1.97;1.57;;;;;;;;;;5045925;28;20242;-60
2022/04/09 11:43:19;;;;;;;3.60;1.83;;;;;;;;;;5056948;28;20694;-59
2022/04/09 11:45:46;;;;;;;3.13;1.50;;;;;;;;;;5083624;28;20187;-57
2022/04/09 11:48:19;;;;;;;3.47;1.70;;;;;;;;;;5055962;28;20266;-60
2022/04/09 11:50:46;;;;;;;5.40;1.60;;;;;;;;;;5051711;28;20177;-61
2022/04/09 11:53:16;;;;;;;3.17;1.90;;;;;;;;;;5061839;28;20231;-60
2022/04/09 11:55:43;;;;;;;3.77;1.57;;;;;;;;;;5079759;28;20656;-61
2022/04/09 11:58:11;;;;;;;2.77;1.93;;;;;;;;;;5081861;28;20579;-59
2022/04/09 12:00:38;;;;;;;2.37;1.60;;;;;;;;;;5080411;28;20684;-62
2022/04/09 12:03:05;;;;;;;4.63;2.20;;;;;;;;;;5074867;28;20296;-62
2022/04/09 12:05:36;;;;;;;1.63;1.30;;;;;;;;;;5045769;28;20192;-59
2022/04/09 12:08:02;;;;;;;8.57;2.53;;;;;;;;;;5062424;28;20184;-62
2022/04/09 12:10:30;;;;;;;1.53;1.27;;;;;;;;;;5075131;28;20581;-62
2022/04/09 12:12:57;;;;;;;2.47;1.50;;;;;;;;;;5058486;28;20220;-60
2022/04/09 12:15:33;;;;;;;2.80;1.67;;;;;;;;;;5057875;28;20283;-63
2022/04/09 12:18:00;;;;;;;5.27;2.10;;;;;;;;;;5069944;28;20188;-62
2022/04/09 12:20:39;;;;;;;3.37;1.60;;;;;;;;;;5070085;28;20785;-59
2022/04/09 12:23:05;;;;;;;2.70;1.57;;;;;;;;;;5074435;28;20308;-62
2022/04/09 12:25:34;;;;;;;2.20;1.37;;;;;;;;;;5053542;28;20604;-61
2022/04/09 12:28:01;;;;;;;1.23;1.10;;;;;;;;;;5087749;28;20643;-60
2022/04/09 12:30:45;;;;;;;2.17;1.50;;;;;;;;;;5078384;28;20176;-59
2022/04/09 12:33:12;;;;;;;3.13;1.70;;;;;;;;;;5068587;28;20655;-59
2022/04/09 12:35:38;;;;;;;3.27;1.57;;;;;;;;;;5042086;28;20651;-61
2022/04/09 12:38:05;;;;;;;1.63;1.40;;;;;;;;;;5064457;28;20211;-61
2022/04/09 12:40:32;;;;;;;1.80;1.60;;;;;;;;;;5057197;28;20183;-60
2022/04/09 12:43:03;;;;;;;2.83;1.43;;;;;;;;;;5048460;28;20526;-61
2022/04/09 12:45:29;;;;;;;4.53;2.20;;;;;;;;;;5076329;28;20195;-61
2022/04/09 12:47:56;;;;;;;2.83;1.37;;;;;;;;;;5074538;28;20618;-63
2022/04/09 12:50:30;;;;;;;2.40;1.50;;;;;;;;;;5061856;28;20535;-60
2022/04/09 12:52:57;;;;;;;3.40;2.30;;;;;;;;;;5050680;28;20180;-63
2022/04/09 12:55:25;;;;;;;2.37;1.70;;;;;;;;;;5078420;28;20682;-62
2022/04/09 12:57:51;;;;;;;2.60;1.53;;;;;;;;;;5070586;28;20192;-63
2022/04/09 13:00:18;;;;;;;2.93;1.90;;;;;;;;;;5072368;28;20184;-60
2022/04/09 13:02:45;;;;;;;4.30;1.97;;;;;;;;;;5046069;28;20302;-63
2022/04/09 13:05:12;;;;;;;2.67;1.67;;;;;;;;;;5062063;28;20181;-63
2022/04/09 13:07:38;;;;;;;2.10;1.73;;;;;;;;;;5054925;28;20176;-63
2022/04/09 13:10:05;;;;;;;2.60;1.60;;;;;;;;;;5069218;28;20269;-61
2022/04/09 13:12:31;;;;;;;2.43;2.23;;;;;;;;;;5067805;28;20212;-61
2022/04/09 13:14:57;;;;;;;3.97;1.90;;;;;;;;;;5050969;28;20222;-59
2022/04/09 13:17:24;;;;;;;3.27;1.77;;;;;;;;;;5050474;28;20227;-62
2022/04/09 13:19:51;;;;;;;4.50;1.90;;;;;;;;;;5064386;28;20187;-60
2022/04/09 13:22:17;;;;;;;3.20;1.60;;;;;;;;;;5047651;28;20725;-60
2022/04/09 13:24:44;;;;;;;2.93;1.87;;;;;;;;;;5049714;28;20552;-61
2022/04/09 13:27:10;;;;;;;5.80;2.17;;;;;;;;;;5065354;28;20172;-61
2022/04/09 13:29:36;;;;;;;3.60;1.63;;;;;;;;;;5057848;28;20184;-62
2022/04/09 13:32:06;;;;;;;1.27;1.17;;;;;;;;;;5057691;28;20545;-59
2022/04/09 13:34:32;;;;;;;1.87;1.30;;;;;;;;;;5077660;28;20192;-64
2022/04/09 13:36:58;;;;;;;1.97;1.50;;;;;;;;;;5069189;28;20184;-62
2022/04/09 13:39:24;;;;;;;2.27;1.33;;;;;;;;;;5055308;28;20195;-64
2022/04/09 13:41:50;;;;;;;3.00;1.63;;;;;;;;;;5070091;28;20709;-64
2022/04/09 13:44:16;;;;;;;2.13;1.37;;;;;;;;;;5070734;28;20187;-63
2022/04/09 13:46:43;;;;;;;1.60;1.50;;;;;;;;;;5037012;28;20786;-59
2022/04/09 13:49:09;;;;;;;1.70;1.20;;;;;;;;;;5049448;28;20842;-63
2022/04/09 13:51:36;;;;;;;2.60;1.50;;;;;;;;;;5072739;28;20591;-63
2022/04/09 13:54:02;;;;;;;2.83;1.57;;;;;;;;;;5061263;28;20198;-61
2022/04/09 13:56:28;;;;;;;5.07;1.70;;;;;;;;;;5057702;28;20187;-62
2022/04/09 13:58:54;;;;;;;1.90;1.43;;;;;;;;;;5075495;28;20180;-63
2022/04/09 14:01:20;;;;;;;5.87;2.93;;;;;;;;;;5073261;28;20207;-62
2022/04/09 14:03:46;;;;;;;5.37;1.60;;;;;;;;;;5050268;28;20318;-59
2022/04/09 14:06:12;;;;;;;3.17;1.60;;;;;;;;;;5052298;28;20646;-63
2022/04/09 14:08:39;;;;;;;3.00;1.67;;;;;;;;;;5067438;28;20180;-60
2022/04/09 14:11:05;;;;;;;2.13;1.30;;;;;;;;;;5047458;28;20188;-62
2022/04/09 14:13:31;;;;;;;2.80;2.00;;;;;;;;;;5068925;28;20227;-61
2022/04/09 14:15:57;;;;;;;2.17;1.43;;;;;;;;;;5074513;28;20187;-62
2022/04/09 14:18:23;;;;;;;4.73;1.90;;;;;;;;;;5077198;28;20188;-58
2022/04/09 14:20:49;;;;;;;3.60;1.97;;;;;;;;;;5046720;28;20311;-63
2022/04/09 14:23:15;;;;;;;6.90;3.00;;;;;;;;;;5067225;28;20208;-63
2022/04/09 14:25:41;;;;;;;2.07;1.40;;;;;;;;;;5062356;28;20184;-65
2022/04/09 14:28:10;;;;;;;3.00;1.83;;;;;;;;;;5061906;28;20212;-62
2022/04/09 14:30:40;;;;;;;5.60;2.00;;;;;;;;;;5043187;28;20541;-57
2022/04/09 14:33:06;;;;;;;2.60;1.77;;;;;;;;;;5060513;28;20532;-59
2022/04/09 14:35:32;;;;;;;4.07;1.90;;;;;;;;;;5063278;28;20714;-61
2022/04/09 14:37:58;;;;;;;4.17;1.80;;;;;;;;;;5049363;28;20184;-60
2022/04/09 14:40:24;;;;;;;3.83;2.00;;;;;;;;;;5066355;28;20180;-63
2022/04/09 14:42:56;;;;;;;4.93;2.37;;;;;;;;;;5066941;28;20208;-63
2022/04/09 14:45:22;;;;;;;3.17;1.57;;;;;;;;;;5050813;28;20193;-63